LDPL Informações do Aeroporto

Informações da Pista
Pista 09 Comprimento 9678 ft Largura 148 ft
Elevação 169 ft Limite 0 ft Heading 88
Pista 27 Comprimento 9678 ft Largura 148 ft
Elevação 274 ft Limite 0 ft Heading 268
Frequências do Aeroporto
Tipo APP Nome APP Frequência 118.4 MHZ
Tipo TWR Nome TWR Frequência 120 MHZ
Navaids do Aeroporto
Tipo NDB Nome Cres Frequência 433 KHZ
Tipo NDB Nome Kavran Frequência 265 KHZ
Tipo NDB Nome Pula Frequência 352 KHZ
Tipo VOR-DME Nome Pula Frequência 111250 KHZ
Informações meteorológicas do aeroporto e NOTAM
ADDS - METARS form results

(1745 UTC 18 March 2019)
Data provider http://aviationweather.gov/metar/data/
 
METAR text: LDPL 181730Z 05012KT 9999 OVC045 07/02 Q1016 NOSIG
Conditions at: LDPL (PULA , HR) observed 1730 UTC 18 March 2019
Temperature: 7.0°C (45°F)
Dewpoint: 2.0°C (36°F) [RH = 70%]
Pressure (altimeter): 30.00 inches Hg (1016.0 mb)
Winds: from the NE (50 degrees) at 14 MPH (12 knots; 6.2 m/s)
Visibility: 6 or more miles (10+ km)
Ceiling: 4500 feet AGL
Clouds: overcast cloud deck at 4500 feet AGL
Weather: no significant weather observed at this time

METAR text: LDPL 181700Z 05012KT 9999 OVC040 07/02 Q1016 NOSIG
Conditions at: LDPL (PULA , HR) observed 1700 UTC 18 March 2019
Temperature: 7.0°C (45°F)
Dewpoint: 2.0°C (36°F) [RH = 70%]
Pressure (altimeter): 30.00 inches Hg (1016.0 mb)
Winds: from the NE (50 degrees) at 14 MPH (12 knots; 6.2 m/s)
Visibility: 6 or more miles (10+ km)
Ceiling: 4000 feet AGL
Clouds: overcast cloud deck at 4000 feet AGL
Weather: no significant weather observed at this time

Forecast for: LDPL (PULA , HR)
Text: TAF LDPL 181725Z 1818/1918 06015KT 9999 BKN030 TX09/1912Z TN04/1900Z
Forecast period: 1800 UTC 18 March 2019 to 1800 UTC 19 March 2019
Forecast type: FROM: standard forecast or significant change
Winds: from the ENE (60 degrees) at 17 MPH (15 knots; 7.7 m/s)
Visibility: 6 or more miles 10+ km)
Ceiling: 3000 feet AGL
Clouds: broken clouds at 3000 feet AGL
Weather: no significant weather forecast for this period
Text: TEMPO 1818/1912 06018G30KT
Forecast period: 1800 UTC 18 March 2019 to 1200 UTC 19 March 2019
Forecast type: TEMPORARY: The following changes expected for less than half the time period
Winds: from the ENE (60 degrees) at 21 MPH (18 knots; 9.3 m/s)
gusting to 34 MPH (30 knots; 15.4 m/s)
Visibility: missing
Ceiling: unknown
Clouds: missing
Weather: no significant weather forecast for this period
Text: PROB30
Forecast period: 1800 UTC 18 March 2019 to 0900 UTC 19 March 2019
Forecast type: TEMPORARY: The following changes expected for less than half the time period
Visibility: missing
Ceiling: unknown
Clouds: missing
Weather: RA  (moderate rain)